sensor_id;sensor_type;location;lat;lon;timestamp;pressure;altitude;pressure_sealevel;temperature;humidity
70411;BME280;57832;46.038;11.398;2023-04-02T00:06:33;95965.47;;;6.53;100.00
70411;BME280;57832;46.038;11.398;2023-04-02T00:11:49;95965.25;;;6.55;100.00
70411;BME280;57832;46.038;11.398;2023-04-02T00:14:31;95970.06;;;6.63;100.00
70411;BME280;57832;46.038;11.398;2023-04-02T00:17:03;95963.63;;;6.71;100.00
70411;BME280;57832;46.038;11.398;2023-04-02T00:22:17;95958.94;;;6.50;100.00
70411;BME280;57832;46.038;11.398;2023-04-02T00:24:45;95959.63;;;6.63;100.00
70411;BME280;57832;46.038;11.398;2023-04-02T00:27:12;95955.84;;;6.53;100.00
70411;BME280;57832;46.038;11.398;2023-04-02T00:29:48;95953.41;;;6.47;100.00
70411;BME280;57832;46.038;11.398;2023-04-02T00:32:19;95954.94;;;6.09;100.00
70411;BME280;57832;46.038;11.398;2023-04-02T00:34:46;95960.63;;;6.23;100.00
70411;BME280;57832;46.038;11.398;2023-04-02T00:37:19;95967.19;;;6.25;100.00
70411;BME280;57832;46.038;11.398;2023-04-02T00:39:55;95969.59;;;6.49;100.00
70411;BME280;57832;46.038;11.398;2023-04-02T00:42:23;95958.81;;;6.62;100.00
70411;BME280;57832;46.038;11.398;2023-04-02T00:44:49;95966.03;;;6.55;100.00
70411;BME280;57832;46.038;11.398;2023-04-02T00:47:26;95971.91;;;6.45;100.00
70411;BME280;57832;46.038;11.398;2023-04-02T00:50:22;95968.53;;;6.28;100.00
70411;BME280;57832;46.038;11.398;2023-04-02T00:52:51;95970.16;;;6.34;100.00
70411;BME280;57832;46.038;11.398;2023-04-02T00:55:26;95963.41;;;6.72;100.00
70411;BME280;57832;46.038;11.398;2023-04-02T00:57:53;95974.25;;;6.47;100.00
70411;BME280;57832;46.038;11.398;2023-04-02T01:00:32;95965.47;;;6.53;100.00
70411;BME280;57832;46.038;11.398;2023-04-02T01:06:15;95971.50;;;6.36;100.00
70411;BME280;57832;46.038;11.398;2023-04-02T01:09:05;95977.03;;;6.40;100.00
70411;BME280;57832;46.038;11.398;2023-04-02T01:11:53;95976.00;;;6.07;100.00
70411;BME280;57832;46.038;11.398;2023-04-02T01:17:38;95980.81;;;6.49;100.00
70411;BME280;57832;46.038;11.398;2023-04-02T01:23:16;95980.41;;;6.24;100.00
70411;BME280;57832;46.038;11.398;2023-04-02T01:25:58;95980.38;;;6.18;100.00
70411;BME280;57832;46.038;11.398;2023-04-02T01:31:20;95979.63;;;6.23;100.00
70411;BME280;57832;46.038;11.398;2023-04-02T01:33:46;95980.38;;;6.18;100.00
70411;BME280;57832;46.038;11.398;2023-04-02T01:36:25;95979.41;;;6.08;100.00
70411;BME280;57832;46.038;11.398;2023-04-02T01:41:44;95983.84;;;5.95;100.00
70411;BME280;57832;46.038;11.398;2023-04-02T01:44:27;95981.19;;;5.44;100.00
70411;BME280;57832;46.038;11.398;2023-04-02T01:46:54;95987.81;;;5.52;100.00
70411;BME280;57832;46.038;11.398;2023-04-02T01:49:23;95984.56;;;5.45;100.00
70411;BME280;57832;46.038;11.398;2023-04-02T01:51:53;95986.41;;;5.32;100.00
70411;BME280;57832;46.038;11.398;2023-04-02T01:54:21;95983.09;;;5.37;100.00
70411;BME280;57832;46.038;11.398;2023-04-02T01:56:48;95983.00;;;5.61;100.00
70411;BME280;57832;46.038;11.398;2023-04-02T01:59:17;95983.81;;;5.61;100.00
70411;BME280;57832;46.038;11.398;2023-04-02T02:04:16;95997.06;;;5.31;100.00
70411;BME280;57832;46.038;11.398;2023-04-02T02:06:43;95988.09;;;5.39;100.00
70411;BME280;57832;46.038;11.398;2023-04-02T02:09:16;95998.13;;;5.47;100.00
70411;BME280;57832;46.038;11.398;2023-04-02T02:11:47;96002.38;;;5.53;100.00
70411;BME280;57832;46.038;11.398;2023-04-02T02:14:18;96001.75;;;5.46;100.00
70411;BME280;57832;46.038;11.398;2023-04-02T02:16:45;96002.53;;;5.17;100.00
70411;BME280;57832;46.038;11.398;2023-04-02T02:19:33;96006.72;;;5.18;100.00
70411;BME280;57832;46.038;11.398;2023-04-02T02:24:34;96012.19;;;4.69;100.00
70411;BME280;57832;46.038;11.398;2023-04-02T02:29:54;96012.81;;;5.12;100.00
70411;BME280;57832;46.038;11.398;2023-04-02T02:32:23;96014.31;;;4.84;100.00
70411;BME280;57832;46.038;11.398;2023-04-02T02:35:14;96016.38;;;4.35;100.00
70411;BME280;57832;46.038;11.398;2023-04-02T02:37:46;96017.38;;;4.46;100.00
70411;BME280;57832;46.038;11.398;2023-04-02T02:40:35;96019.53;;;4.25;100.00
70411;BME280;57832;46.038;11.398;2023-04-02T02:43:08;96023.59;;;4.68;100.00
70411;BME280;57832;46.038;11.398;2023-04-02T02:45:37;96016.34;;;4.94;100.00
70411;BME280;57832;46.038;11.398;2023-04-02T02:48:11;96013.63;;;5.01;100.00
70411;BME280;57832;46.038;11.398;2023-04-02T02:50:38;96019.97;;;4.93;100.00
70411;BME280;57832;46.038;11.398;2023-04-02T02:53:10;96019.50;;;4.96;100.00
70411;BME280;57832;46.038;11.398;2023-04-02T02:55:38;96032.16;;;4.69;100.00
70411;BME280;57832;46.038;11.398;2023-04-02T02:58:05;96027.66;;;4.88;100.00
70411;BME280;57832;46.038;11.398;2023-04-02T03:00:31;96034.78;;;4.69;100.00
70411;BME280;57832;46.038;11.398;2023-04-02T03:03:04;96035.13;;;4.73;100.00
70411;BME280;57832;46.038;11.398;2023-04-02T03:05:31;96034.41;;;5.01;100.00
70411;BME280;57832;46.038;11.398;2023-04-02T03:07:58;96034.88;;;4.98;100.00
70411;BME280;57832;46.038;11.398;2023-04-02T03:15:41;96045.97;;;4.93;100.00
70411;BME280;57832;46.038;11.398;2023-04-02T03:23:37;96050.47;;;4.86;100.00
70411;BME280;57832;46.038;11.398;2023-04-02T03:26:18;96044.25;;;4.99;100.00
70411;BME280;57832;46.038;11.398;2023-04-02T03:28:58;96043.47;;;4.87;100.00
70411;BME280;57832;46.038;11.398;2023-04-02T03:31:38;96043.56;;;4.92;100.00
70411;BME280;57832;46.038;11.398;2023-04-02T03:34:14;96051.59;;;4.66;100.00
70411;BME280;57832;46.038;11.398;2023-04-02T03:37:29;96052.53;;;4.72;100.00
70411;BME280;57832;46.038;11.398;2023-04-02T03:42:24;96064.16;;;4.81;100.00
70411;BME280;57832;46.038;11.398;2023-04-02T03:53:11;96068.34;;;4.71;100.00
70411;BME280;57832;46.038;11.398;2023-04-02T03:55:39;96072.47;;;4.36;100.00
70411;BME280;57832;46.038;11.398;2023-04-02T03:58:54;96084.09;;;4.33;100.00
70411;BME280;57832;46.038;11.398;2023-04-02T04:01:43;96076.34;;;4.93;100.00
70411;BME280;57832;46.038;11.398;2023-04-02T04:04:18;96072.84;;;5.11;100.00
70411;BME280;57832;46.038;11.398;2023-04-02T04:06:48;96078.81;;;4.99;100.00
70411;BME280;57832;46.038;11.398;2023-04-02T04:09:24;96086.72;;;4.93;100.00
70411;BME280;57832;46.038;11.398;2023-04-02T04:11:57;96089.22;;;4.88;100.00
70411;BME280;57832;46.038;11.398;2023-04-02T04:14:31;96100.66;;;4.21;100.00
70411;BME280;57832;46.038;11.398;2023-04-02T04:17:22;96115.28;;;4.03;100.00
70411;BME280;57832;46.038;11.398;2023-04-02T04:20:16;96108.50;;;4.44;100.00
70411;BME280;57832;46.038;11.398;2023-04-02T04:22:47;96106.97;;;4.79;100.00
70411;BME280;57832;46.038;11.398;2023-04-02T04:25:20;96107.19;;;4.65;100.00
70411;BME280;57832;46.038;11.398;2023-04-02T04:28:00;96114.97;;;4.54;100.00
70411;BME280;57832;46.038;11.398;2023-04-02T04:33:27;96119.16;;;4.78;100.00
70411;BME280;57832;46.038;11.398;2023-04-02T04:36:00;96120.63;;;4.86;100.00
70411;BME280;57832;46.038;11.398;2023-04-02T04:38:35;96125.28;;;4.84;100.00
70411;BME280;57832;46.038;11.398;2023-04-02T04:41:15;96127.41;;;4.75;100.00
70411;BME280;57832;46.038;11.398;2023-04-02T04:49:01;96133.28;;;4.28;100.00
70411;BME280;57832;46.038;11.398;2023-04-02T04:54:11;96142.22;;;4.32;100.00
70411;BME280;57832;46.038;11.398;2023-04-02T04:56:38;96149.50;;;4.54;100.00
70411;BME280;57832;46.038;11.398;2023-04-02T05:01:51;96152.78;;;4.49;100.00
70411;BME280;57832;46.038;11.398;2023-04-02T05:09:36;96164.50;;;4.10;100.00
70411;BME280;57832;46.038;11.398;2023-04-02T05:12:31;96170.53;;;4.04;100.00
70411;BME280;57832;46.038;11.398;2023-04-02T05:15:01;96170.59;;;4.15;100.00
70411;BME280;57832;46.038;11.398;2023-04-02T05:17:52;96166.09;;;4.11;100.00
70411;BME280;57832;46.038;11.398;2023-04-02T05:20:33;96167.88;;;3.80;100.00
70411;BME280;57832;46.038;11.398;2023-04-02T05:23:11;96176.50;;;3.92;100.00
70411;BME280;57832;46.038;11.398;2023-04-02T05:25:51;96174.38;;;3.82;100.00
70411;BME280;57832;46.038;11.398;2023-04-02T05:28:24;96172.53;;;3.90;100.00
70411;BME280;57832;46.038;11.398;2023-04-02T05:31:09;96174.09;;;4.09;100.00
70411;BME280;57832;46.038;11.398;2023-04-02T05:33:37;96181.50;;;4.06;100.00
70411;BME280;57832;46.038;11.398;2023-04-02T05:36:08;96180.31;;;3.90;100.00
70411;BME280;57832;46.038;11.398;2023-04-02T05:38:38;96187.28;;;3.89;100.00
70411;BME280;57832;46.038;11.398;2023-04-02T05:43:47;96205.22;;;3.35;100.00
70411;BME280;57832;46.038;11.398;2023-04-02T05:46:19;96203.66;;;3.90;100.00
70411;BME280;57832;46.038;11.398;2023-04-02T05:48:50;96195.13;;;4.01;100.00
70411;BME280;57832;46.038;11.398;2023-04-02T05:51:44;96204.16;;;3.43;100.00
70411;BME280;57832;46.038;11.398;2023-04-02T05:54:54;96207.09;;;4.02;100.00
70411;BME280;57832;46.038;11.398;2023-04-02T05:57:22;96201.81;;;4.27;100.00
70411;BME280;57832;46.038;11.398;2023-04-02T05:59:55;96198.41;;;3.96;100.00
70411;BME280;57832;46.038;11.398;2023-04-02T06:02:36;96205.56;;;4.13;100.00
70411;BME280;57832;46.038;11.398;2023-04-02T06:07:49;96201.75;;;4.46;100.00
70411;BME280;57832;46.038;11.398;2023-04-02T06:10:19;96198.06;;;4.54;100.00
70411;BME280;57832;46.038;11.398;2023-04-02T06:15:30;96203.25;;;4.54;100.00
70411;BME280;57832;46.038;11.398;2023-04-02T06:20:37;96217.22;;;4.41;100.00
70411;BME280;57832;46.038;11.398;2023-04-02T06:23:09;96217.94;;;4.48;100.00
70411;BME280;57832;46.038;11.398;2023-04-02T06:25:39;96227.47;;;4.35;100.00
70411;BME280;57832;46.038;11.398;2023-04-02T06:28:13;96225.78;;;4.72;100.00
70411;BME280;57832;46.038;11.398;2023-04-02T06:30:40;96227.13;;;5.52;100.00
70411;BME280;57832;46.038;11.398;2023-04-02T06:33:07;96206.78;;;6.71;100.00
70411;BME280;57832;46.038;11.398;2023-04-02T06:35:38;96209.66;;;7.03;100.00
70411;BME280;57832;46.038;11.398;2023-04-02T06:38:06;96201.63;;;7.83;100.00
70411;BME280;57832;46.038;11.398;2023-04-02T06:40:52;96206.28;;;7.98;100.00
70411;BME280;57832;46.038;11.398;2023-04-02T06:44:06;96212.19;;;8.93;100.00
70411;BME280;57832;46.038;11.398;2023-04-02T06:46:42;96209.63;;;8.65;100.00
70411;BME280;57832;46.038;11.398;2023-04-02T06:51:50;96213.88;;;9.42;100.00
70411;BME280;57832;46.038;11.398;2023-04-02T06:54:18;96218.56;;;9.34;100.00
70411;BME280;57832;46.038;11.398;2023-04-02T06:56:45;96216.91;;;9.23;100.00
70411;BME280;57832;46.038;11.398;2023-04-02T06:59:13;96205.34;;;9.62;100.00
70411;BME280;57832;46.038;11.398;2023-04-02T07:01:44;96215.31;;;9.60;100.00
70411;BME280;57832;46.038;11.398;2023-04-02T07:04:11;96214.38;;;10.50;100.00
70411;BME280;57832;46.038;11.398;2023-04-02T07:06:37;96216.03;;;10.92;100.00
70411;BME280;57832;46.038;11.398;2023-04-02T07:09:03;96209.19;;;11.27;100.00
70411;BME280;57832;46.038;11.398;2023-04-02T07:11:28;96216.03;;;11.28;100.00
70411;BME280;57832;46.038;11.398;2023-04-02T07:13:54;96218.63;;;11.13;100.00
70411;BME280;57832;46.038;11.398;2023-04-02T07:16:22;96222.72;;;12.07;100.00
70411;BME280;57832;46.038;11.398;2023-04-02T07:18:49;96227.91;;;12.22;100.00
70411;BME280;57832;46.038;11.398;2023-04-02T07:21:15;96222.38;;;12.74;100.00
70411;BME280;57832;46.038;11.398;2023-04-02T07:23:40;96219.69;;;13.18;100.00
70411;BME280;57832;46.038;11.398;2023-04-02T07:26:07;96221.81;;;13.16;100.00
70411;BME280;57832;46.038;11.398;2023-04-02T07:28:37;96227.88;;;13.17;100.00
70411;BME280;57832;46.038;11.398;2023-04-02T07:31:02;96226.41;;;14.13;100.00
70411;BME280;57832;46.038;11.398;2023-04-02T07:33:29;96232.84;;;13.53;100.00
70411;BME280;57832;46.038;11.398;2023-04-02T07:35:56;96225.06;;;14.59;100.00
70411;BME280;57832;46.038;11.398;2023-04-02T07:38:22;96222.22;;;14.93;100.00
70411;BME280;57832;46.038;11.398;2023-04-02T07:40:49;96225.53;;;14.42;100.00
70411;BME280;57832;46.038;11.398;2023-04-02T07:43:14;96220.78;;;14.82;100.00
70411;BME280;57832;46.038;11.398;2023-04-02T07:45:40;96232.94;;;13.96;100.00
70411;BME280;57832;46.038;11.398;2023-04-02T07:48:07;96216.69;;;15.09;100.00
70411;BME280;57832;46.038;11.398;2023-04-02T07:50:33;96229.34;;;15.72;100.00
70411;BME280;57832;46.038;11.398;2023-04-02T07:52:59;96232.09;;;14.44;100.00
70411;BME280;57832;46.038;11.398;2023-04-02T07:55:24;96226.25;;;14.71;100.00
70411;BME280;57832;46.038;11.398;2023-04-02T07:57:52;96227.47;;;16.06;100.00
70411;BME280;57832;46.038;11.398;2023-04-02T08:00:18;96220.66;;;14.92;100.00
70411;BME280;57832;46.038;11.398;2023-04-02T08:02:45;96224.66;;;16.39;100.00
70411;BME280;57832;46.038;11.398;2023-04-02T08:05:11;96232.72;;;15.78;100.00
70411;BME280;57832;46.038;11.398;2023-04-02T08:07:37;96227.38;;;15.83;100.00
70411;BME280;57832;46.038;11.398;2023-04-02T08:10:04;96230.78;;;15.84;95.94
70411;BME280;57832;46.038;11.398;2023-04-02T08:12:30;96233.22;;;15.80;100.00
70411;BME280;57832;46.038;11.398;2023-04-02T08:14:55;96232.06;;;15.40;100.00
70411;BME280;57832;46.038;11.398;2023-04-02T08:17:21;96232.03;;;16.28;94.22
70411;BME280;57832;46.038;11.398;2023-04-02T08:19:47;96230.78;;;16.76;87.86
70411;BME280;57832;46.038;11.398;2023-04-02T08:22:12;96236.22;;;16.57;91.40
70411;BME280;57832;46.038;11.398;2023-04-02T08:24:38;96234.22;;;16.26;92.64
70411;BME280;57832;46.038;11.398;2023-04-02T08:27:03;96229.75;;;16.86;81.05
70411;BME280;57832;46.038;11.398;2023-04-02T08:29:29;96232.94;;;16.10;87.48
70411;BME280;57832;46.038;11.398;2023-04-02T08:31:59;96234.25;;;17.45;82.85
70411;BME280;57832;46.038;11.398;2023-04-02T08:34:26;96224.78;;;17.30;71.93
70411;BME280;57832;46.038;11.398;2023-04-02T08:36:55;96226.09;;;17.72;67.64
70411;BME280;57832;46.038;11.398;2023-04-02T08:39:22;96221.25;;;19.08;52.27
70411;BME280;57832;46.038;11.398;2023-04-02T08:41:59;96215.75;;;20.16;50.87
70411;BME280;57832;46.038;11.398;2023-04-02T08:47:07;96222.22;;;19.68;45.90
70411;BME280;57832;46.038;11.398;2023-04-02T08:52:03;96209.06;;;21.49;40.06
70411;BME280;57832;46.038;11.398;2023-04-02T08:54:35;96209.34;;;20.17;38.75
70411;BME280;57832;46.038;11.398;2023-04-02T08:57:23;96213.09;;;20.67;39.24
70411;BME280;57832;46.038;11.398;2023-04-02T09:02:51;96204.25;;;21.18;36.42
70411;BME280;57832;46.038;11.398;2023-04-02T09:05:25;96204.13;;;21.60;35.30
70411;BME280;57832;46.038;11.398;2023-04-02T09:07:55;96206.59;;;22.15;34.05
70411;BME280;57832;46.038;11.398;2023-04-02T09:10:27;96200.47;;;21.77;34.02
70411;BME280;57832;46.038;11.398;2023-04-02T09:12:56;96211.03;;;21.74;32.98
70411;BME280;57832;46.038;11.398;2023-04-02T09:15:33;96210.44;;;20.67;34.33
70411;BME280;57832;46.038;11.398;2023-04-02T09:18:10;96207.75;;;20.46;33.51
70411;BME280;57832;46.038;11.398;2023-04-02T09:20:37;96206.19;;;21.42;32.71
70411;BME280;57832;46.038;11.398;2023-04-02T09:23:04;96205.59;;;22.07;30.82
70411;BME280;57832;46.038;11.398;2023-04-02T09:25:30;96213.16;;;22.17;30.35
70411;BME280;57832;46.038;11.398;2023-04-02T09:28:00;96209.75;;;20.79;30.99
70411;BME280;57832;46.038;11.398;2023-04-02T09:33:13;96210.75;;;20.87;31.06
70411;BME280;57832;46.038;11.398;2023-04-02T09:38:25;96209.50;;;21.05;30.99
70411;BME280;57832;46.038;11.398;2023-04-02T09:41:01;96214.16;;;19.94;33.09
70411;BME280;57832;46.038;11.398;2023-04-02T09:43:37;96210.72;;;19.46;33.28
70411;BME280;57832;46.038;11.398;2023-04-02T09:48:42;96215.31;;;18.93;34.26
70411;BME280;57832;46.038;11.398;2023-04-02T09:51:14;96221.72;;;18.92;34.25
70411;BME280;57832;46.038;11.398;2023-04-02T09:54:06;96219.22;;;19.13;34.50
70411;BME280;57832;46.038;11.398;2023-04-02T09:56:33;96224.81;;;18.50;36.26
70411;BME280;57832;46.038;11.398;2023-04-02T10:01:39;96218.44;;;18.02;38.19
70411;BME280;57832;46.038;11.398;2023-04-02T10:04:42;96222.97;;;18.02;38.98
70411;BME280;57832;46.038;11.398;2023-04-02T10:07:42;96222.66;;;17.41;39.75
70411;BME280;57832;46.038;11.398;2023-04-02T10:10:38;96228.94;;;17.76;39.80
70411;BME280;57832;46.038;11.398;2023-04-02T10:13:25;96236.94;;;17.85;39.78
70411;BME280;57832;46.038;11.398;2023-04-02T10:15:58;96231.53;;;17.99;41.14
70411;BME280;57832;46.038;11.398;2023-04-02T10:21:18;96229.53;;;18.88;39.19
70411;BME280;57832;46.038;11.398;2023-04-02T10:23:46;96227.78;;;18.84;39.81
70411;BME280;57832;46.038;11.398;2023-04-02T10:29:44;96228.50;;;21.04;35.78
70411;BME280;57832;46.038;11.398;2023-04-02T10:32:47;96222.09;;;20.84;36.19
70411;BME280;57832;46.038;11.398;2023-04-02T10:40:18;96236.41;;;18.05;39.39
70411;BME280;57832;46.038;11.398;2023-04-02T10:43:33;96237.38;;;17.78;40.45
70411;BME280;57832;46.038;11.398;2023-04-02T10:46:27;96244.19;;;18.02;42.76
70411;BME280;57832;46.038;11.398;2023-04-02T10:49:24;96234.09;;;17.18;47.08
70411;BME280;57832;46.038;11.398;2023-04-02T10:57:07;96229.94;;;17.58;53.78
70411;BME280;57832;46.038;11.398;2023-04-02T10:59:38;96240.28;;;17.68;60.96
70411;BME280;57832;46.038;11.398;2023-04-02T11:02:23;96244.78;;;18.48;53.35
70411;BME280;57832;46.038;11.398;2023-04-02T11:04:51;96249.16;;;18.52;59.27
70411;BME280;57832;46.038;11.398;2023-04-02T11:07:21;96241.06;;;21.37;47.63
70411;BME280;57832;46.038;11.398;2023-04-02T11:09:51;96236.84;;;21.48;42.21
70411;BME280;57832;46.038;11.398;2023-04-02T11:14:59;96236.31;;;24.44;39.50
70411;BME280;57832;46.038;11.398;2023-04-02T11:17:25;96232.94;;;24.82;38.23
70411;BME280;57832;46.038;11.398;2023-04-02T11:19:51;96229.19;;;24.87;36.86
70411;BME280;57832;46.038;11.398;2023-04-02T11:22:23;96225.31;;;24.65;36.42
70411;BME280;57832;46.038;11.398;2023-04-02T11:24:51;96234.59;;;23.40;38.33
70411;BME280;57832;46.038;11.398;2023-04-02T11:27:40;96234.31;;;20.55;45.05
70411;BME280;57832;46.038;11.398;2023-04-02T11:32:49;96235.28;;;18.82;65.33
70411;BME280;57832;46.038;11.398;2023-04-02T11:37:59;96237.84;;;17.80;74.89
70411;BME280;57832;46.038;11.398;2023-04-02T11:40:44;96240.66;;;18.15;74.99
70411;BME280;57832;46.038;11.398;2023-04-02T11:43:49;96239.69;;;20.25;64.94
70411;BME280;57832;46.038;11.398;2023-04-02T11:48:43;96228.09;;;26.20;33.31
70411;BME280;57832;46.038;11.398;2023-04-02T11:53:57;96223.44;;;32.13;28.65
70411;BME280;57832;46.038;11.398;2023-04-02T11:56:30;96207.38;;;33.60;24.69
70411;BME280;57832;46.038;11.398;2023-04-02T11:59:21;96210.75;;;29.17;27.21
70411;BME280;57832;46.038;11.398;2023-04-02T12:07:23;96196.06;;;30.66;26.25
70411;BME280;57832;46.038;11.398;2023-04-02T12:10:10;96190.72;;;30.51;25.50
70411;BME280;57832;46.038;11.398;2023-04-02T12:12:40;96189.59;;;28.38;27.76
70411;BME280;57832;46.038;11.398;2023-04-02T12:15:32;96192.59;;;28.22;30.33
70411;BME280;57832;46.038;11.398;2023-04-02T12:18:19;96202.44;;;22.95;34.23
70411;BME280;57832;46.038;11.398;2023-04-02T12:20:55;96200.59;;;28.78;28.61
70411;BME280;57832;46.038;11.398;2023-04-02T12:23:32;96208.22;;;31.21;25.85
70411;BME280;57832;46.038;11.398;2023-04-02T12:26:29;96214.66;;;22.68;31.62
70411;BME280;57832;46.038;11.398;2023-04-02T12:29:23;96214.78;;;20.93;37.10
70411;BME280;57832;46.038;11.398;2023-04-02T12:31:51;96222.63;;;19.23;40.83
70411;BME280;57832;46.038;11.398;2023-04-02T12:34:19;96222.78;;;18.47;44.83
70411;BME280;57832;46.038;11.398;2023-04-02T12:36:58;96227.53;;;17.79;48.35
70411;BME280;57832;46.038;11.398;2023-04-02T12:39:24;96222.84;;;17.44;50.98
70411;BME280;57832;46.038;11.398;2023-04-02T12:41:50;96228.34;;;17.48;53.53
70411;BME280;57832;46.038;11.398;2023-04-02T12:44:21;96224.31;;;17.28;56.00
70411;BME280;57832;46.038;11.398;2023-04-02T12:46:48;96222.81;;;17.13;53.76
70411;BME280;57832;46.038;11.398;2023-04-02T12:49:36;96228.47;;;17.43;57.76
70411;BME280;57832;46.038;11.398;2023-04-02T12:52:08;96226.88;;;19.80;47.68
70411;BME280;57832;46.038;11.398;2023-04-02T12:54:47;96221.75;;;20.85;42.42
70411;BME280;57832;46.038;11.398;2023-04-02T12:57:30;96220.75;;;23.37;34.88
70411;BME280;57832;46.038;11.398;2023-04-02T13:00:42;96221.97;;;22.18;40.20
70411;BME280;57832;46.038;11.398;2023-04-02T13:03:15;96209.81;;;28.73;29.64
70411;BME280;57832;46.038;11.398;2023-04-02T13:05:54;96223.38;;;22.03;35.96
70411;BME280;57832;46.038;11.398;2023-04-02T13:08:26;96213.38;;;20.24;38.29
70411;BME280;57832;46.038;11.398;2023-04-02T13:11:00;96219.06;;;18.92;41.03
70411;BME280;57832;46.038;11.398;2023-04-02T13:13:30;96220.38;;;18.28;44.43
70411;BME280;57832;46.038;11.398;2023-04-02T13:16:24;96219.84;;;18.00;49.87
70411;BME280;57832;46.038;11.398;2023-04-02T13:18:50;96223.16;;;17.74;51.78
70411;BME280;57832;46.038;11.398;2023-04-02T13:23:43;96211.75;;;17.11;60.06
70411;BME280;57832;46.038;11.398;2023-04-02T13:26:14;96217.72;;;17.48;56.95
70411;BME280;57832;46.038;11.398;2023-04-02T13:28:42;96217.22;;;18.09;53.29
70411;BME280;57832;46.038;11.398;2023-04-02T13:31:15;96212.97;;;18.92;51.27
70411;BME280;57832;46.038;11.398;2023-04-02T13:33:41;96211.84;;;18.66;51.12
70411;BME280;57832;46.038;11.398;2023-04-02T13:36:12;96209.94;;;19.28;47.72
70411;BME280;57832;46.038;11.398;2023-04-02T13:38:38;96206.22;;;20.66;44.38
70411;BME280;57832;46.038;11.398;2023-04-02T13:41:03;96201.81;;;21.96;39.00
70411;BME280;57832;46.038;11.398;2023-04-02T13:43:29;96203.66;;;24.93;34.93
70411;BME280;57832;46.038;11.398;2023-04-02T13:45:57;96191.81;;;28.25;29.94
70411;BME280;57832;46.038;11.398;2023-04-02T13:48:24;96191.16;;;28.46;27.14
70411;BME280;57832;46.038;11.398;2023-04-02T13:50:53;96184.59;;;29.68;25.74
70411;BME280;57832;46.038;11.398;2023-04-02T13:53:22;96179.28;;;32.12;24.44
70411;BME280;57832;46.038;11.398;2023-04-02T13:55:50;96173.44;;;32.14;23.79
70411;BME280;57832;46.038;11.398;2023-04-02T13:58:16;96178.03;;;31.23;24.07
70411;BME280;57832;46.038;11.398;2023-04-02T14:00:43;96170.84;;;27.11;26.73
70411;BME280;57832;46.038;11.398;2023-04-02T14:03:13;96175.63;;;25.33;30.01
70411;BME280;57832;46.038;11.398;2023-04-02T14:06:21;96168.81;;;23.54;31.84
70411;BME280;57832;46.038;11.398;2023-04-02T14:19:38;96175.66;;;20.43;37.22
70411;BME280;57832;46.038;11.398;2023-04-02T14:24:55;96175.69;;;19.83;38.69
70411;BME280;57832;46.038;11.398;2023-04-02T14:27:40;96176.25;;;19.97;39.72
70411;BME280;57832;46.038;11.398;2023-04-02T14:35:37;96175.25;;;19.25;42.53
70411;BME280;57832;46.038;11.398;2023-04-02T14:43:36;96174.34;;;18.68;41.15
70411;BME280;57832;46.038;11.398;2023-04-02T14:46:05;96172.75;;;20.05;38.47
70411;BME280;57832;46.038;11.398;2023-04-02T14:55:20;96175.50;;;19.41;38.84
70411;BME280;57832;46.038;11.398;2023-04-02T14:57:29;96175.81;;;19.39;39.31
70411;BME280;57832;46.038;11.398;2023-04-02T14:59:57;96174.72;;;19.40;41.28
70411;BME280;57832;46.038;11.398;2023-04-02T15:05:20;96177.31;;;21.11;39.10
70411;BME280;57832;46.038;11.398;2023-04-02T15:07:54;96176.09;;;22.81;35.60
70411;BME280;57832;46.038;11.398;2023-04-02T15:10:37;96179.53;;;23.10;33.45
70411;BME280;57832;46.038;11.398;2023-04-02T15:13:09;96176.41;;;22.39;34.66
70411;BME280;57832;46.038;11.398;2023-04-02T15:15:43;96181.84;;;21.44;36.05
70411;BME280;57832;46.038;11.398;2023-04-02T15:18:16;96177.63;;;20.97;36.60
70411;BME280;57832;46.038;11.398;2023-04-02T15:21:38;96179.50;;;19.64;38.22
70411;BME280;57832;46.038;11.398;2023-04-02T15:29:52;96181.38;;;18.29;41.79
70411;BME280;57832;46.038;11.398;2023-04-02T15:43:01;96175.13;;;17.44;45.43
70411;BME280;57832;46.038;11.398;2023-04-02T15:46:20;96177.41;;;17.05;46.90
70411;BME280;57832;46.038;11.398;2023-04-02T15:54:24;96166.69;;;16.88;58.90
70411;BME280;57832;46.038;11.398;2023-04-02T16:08:29;96178.75;;;16.07;66.14
70411;BME280;57832;46.038;11.398;2023-04-02T16:10:59;96181.91;;;15.95;71.57
70411;BME280;57832;46.038;11.398;2023-04-02T16:13:27;96186.78;;;16.02;74.37
70411;BME280;57832;46.038;11.398;2023-04-02T16:16:04;96188.38;;;15.89;81.01
70411;BME280;57832;46.038;11.398;2023-04-02T16:18:53;96186.63;;;15.98;69.28
70411;BME280;57832;46.038;11.398;2023-04-02T16:21:24;96194.50;;;15.57;73.43
70411;BME280;57832;46.038;11.398;2023-04-02T16:23:51;96199.59;;;15.53;82.02
70411;BME280;57832;46.038;11.398;2023-04-02T16:29:08;96197.56;;;15.17;83.68
70411;BME280;57832;46.038;11.398;2023-04-02T16:42:36;96222.44;;;13.67;100.00
70411;BME280;57832;46.038;11.398;2023-04-02T16:53:36;96227.31;;;13.54;100.00
70411;BME280;57832;46.038;11.398;2023-04-02T16:59:13;96243.59;;;13.57;100.00
70411;BME280;57832;46.038;11.398;2023-04-02T17:02:03;96237.47;;;13.37;100.00
70411;BME280;57832;46.038;11.398;2023-04-02T17:07:17;96245.03;;;13.09;100.00
70411;BME280;57832;46.038;11.398;2023-04-02T17:09:52;96243.53;;;12.98;100.00
70411;BME280;57832;46.038;11.398;2023-04-02T17:12:29;96247.56;;;12.85;100.00
70411;BME280;57832;46.038;11.398;2023-04-02T17:15:01;96241.00;;;12.82;100.00
70411;BME280;57832;46.038;11.398;2023-04-02T17:17:29;96252.97;;;12.59;100.00
70411;BME280;57832;46.038;11.398;2023-04-02T17:19:57;96250.13;;;12.50;100.00
70411;BME280;57832;46.038;11.398;2023-04-02T17:22:24;96258.81;;;12.51;100.00